Time;durP1;ratioP1;P1;durP2;ratioP2;P2;SDS_P1;SDS_P2;PMS_P1;PMS_P2;Temp;Humidity;BMP_temperature;BMP_pressure;BME280_temperature;BME280_humidity;BME280_pressure;Samples;Min_cycle;Max_cycle;Signal;HPM_P1;HPM_P2
2023/04/30 00:01:37;;;;;;;;;;;;;;;;;;5094486;28;1903;-42
2023/04/30 00:04:04;;;;;;;;;;;;;;;;;;5093782;28;2039;-40
2023/04/30 00:06:32;;;;;;;;;;;;;;;;;;5094461;28;2005;-40
2023/04/30 00:08:59;;;;;;;;;;;;;;;;;;5093817;28;1858;-54
2023/04/30 00:11:26;;;;;;;;;;;;;;;;;;5093857;28;2006;-43
2023/04/30 00:13:55;;;;;;;;;;;;;;;;;;5093739;28;2030;-50
2023/04/30 00:16:23;;;;;;;;;;;;;;;;;;5093790;28;1903;-48
2023/04/30 00:18:50;;;;;;;;;;;;;;;;;;5093832;28;1874;-40
2023/04/30 00:21:17;;;;;;;;;;;;;;;;;;5093910;28;1667;-51
2023/04/30 00:23:44;;;;;;;;;;;;;;;;;;5092950;28;1962;-40
2023/04/30 00:26:11;;;;;;;;;;;;;;;;;;5093644;28;1879;-42
2023/04/30 00:28:39;;;;;;;;;;;;;;;;;;5075347;28;1976;-43
2023/04/30 00:31:08;;;;;;;;;;;;;;;;;;5093456;28;1929;-44
2023/04/30 00:33:35;;;;;;;;;;;;;;;;;;5093623;28;1852;-43
2023/04/30 00:36:02;;;;;;;;;;;;;;;;;;5093365;28;2213;-51
2023/04/30 00:38:29;;;;;;;;;;;;;;;;;;5093447;28;1996;-42
2023/04/30 00:40:57;;;;;;;;;;;;;;;;;;5093365;28;2173;-47
2023/04/30 00:43:24;;;;;;;;;;;;;;;;;;5093204;28;1995;-41
2023/04/30 00:45:52;;;;;;;;;;;;;;;;;;5093278;28;1591;-43
2023/04/30 00:48:19;;;;;;;;;;;;;;;;;;5075106;28;1961;-49
2023/04/30 00:50:46;;;;;;;;;;;;;;;;;;5074347;28;1742;-40
2023/04/30 00:53:13;;;;;;;;;;;;;;;;;;5092392;28;1952;-42
2023/04/30 00:55:42;;;;;;;;;;;;;;;;;;5092994;28;2226;-44
2023/04/30 00:58:09;;;;;;;;;;;;;;;;;;5092843;28;1924;-41
2023/04/30 01:00:36;;;;;;;;;;;;;;;;;;5092854;28;2051;-43
2023/04/30 01:03:04;;;;;;;;;;;;;;;;;;5092996;28;1992;-42
2023/04/30 01:05:32;;;;;;;;;;;;;;;;;;5092920;28;1854;-47
2023/04/30 01:07:59;;;;;;;;;;;;;;;;;;5092935;28;1814;-43
2023/04/30 01:10:29;;;;;;;;;;;;;;;;;;5092587;28;1887;-39
2023/04/30 01:13:03;;;;;;;;;;;;;;;;;;5092610;28;2101;-39
2023/04/30 01:15:51;;;;;;;;;;;;;;;;;;5092709;28;1965;-40
2023/04/30 01:18:22;;;;;;;;;;;;;;;;;;5074382;28;2108;-41
2023/04/30 01:20:53;;;;;;;;;;;;;;;;;;5092556;28;1668;-42
2023/04/30 01:23:23;;;;;;;;;;;;;;;;;;5074237;28;1993;-49
2023/04/30 01:26:09;;;;;;;;;;;;;;;;;;5092523;28;2031;-52
2023/04/30 01:28:37;;;;;;;;;;;;;;;;;;5092564;28;1990;-47
2023/04/30 01:31:11;;;;;;;;;;;;;;;;;;5070665;28;2036;-40
2023/04/30 01:33:39;;;;;;;;;;;;;;;;;;5061040;28;1980;-54
2023/04/30 01:36:09;;;;;;;;;;;;;;;;;;5074065;28;1972;-43
2023/04/30 01:38:37;;;;;;;;;;;;;;;;;;5092180;28;2056;-39
2023/04/30 01:41:07;;;;;;;;;;;;;;;;;;5074046;28;2002;-40
2023/04/30 01:43:57;;;;;;;;;;;;;;;;;;5092170;28;2007;-40
2023/04/30 01:46:26;;;;;;;;;;;;;;;;;;5074008;28;2049;-39
2023/04/30 01:49:01;;;;;;;;;;;;;;;;;;5073970;28;1975;-39
2023/04/30 01:51:39;;;;;;;;;;;;;;;;;;5091919;28;2036;-38
2023/04/30 01:54:24;;;;;;;;;;;;;;;;;;5081796;28;1738;-51
2023/04/30 01:57:03;;;;;;;;;;;;;;;;;;5071907;28;2064;-47
2023/04/30 01:59:35;;;;;;;;;;;;;;;;;;5053610;28;1878;-46
2023/04/30 02:02:02;;;;;;;;;;;;;;;;;;5071481;28;2107;-48
2023/04/30 02:04:32;;;;;;;;;;;;;;;;;;5071454;28;2050;-43
2023/04/30 02:06:59;;;;;;;;;;;;;;;;;;5070098;28;1997;-40
2023/04/30 02:09:27;;;;;;;;;;;;;;;;;;5071714;28;1959;-40
2023/04/30 02:11:56;;;;;;;;;;;;;;;;;;5071471;28;1825;-39
2023/04/30 02:14:24;;;;;;;;;;;;;;;;;;5070072;28;2068;-46
2023/04/30 02:16:52;;;;;;;;;;;;;;;;;;5071530;28;2011;-53
2023/04/30 02:19:19;;;;;;;;;;;;;;;;;;5053317;28;1973;-42
2023/04/30 02:21:46;;;;;;;;;;;;;;;;;;5071238;28;1913;-51
2023/04/30 02:24:13;;;;;;;;;;;;;;;;;;5071314;28;1905;-40
2023/04/30 02:26:41;;;;;;;;;;;;;;;;;;5071464;28;1859;-40
2023/04/30 02:29:08;;;;;;;;;;;;;;;;;;5053181;28;1582;-49
2023/04/30 02:31:36;;;;;;;;;;;;;;;;;;5052855;28;1962;-44
2023/04/30 02:34:03;;;;;;;;;;;;;;;;;;5071348;28;1979;-56
2023/04/30 02:36:35;;;;;;;;;;;;;;;;;;5071379;28;2079;-45
2023/04/30 02:39:02;;;;;;;;;;;;;;;;;;5083944;28;2282;-55
2023/04/30 02:41:29;;;;;;;;;;;;;;;;;;5091523;28;1814;-49
2023/04/30 02:43:56;;;;;;;;;;;;;;;;;;5091506;28;1886;-46
2023/04/30 02:46:23;;;;;;;;;;;;;;;;;;5090937;28;1966;-44
2023/04/30 02:48:50;;;;;;;;;;;;;;;;;;5091231;28;1900;-46
2023/04/30 02:51:18;;;;;;;;;;;;;;;;;;5091176;28;1980;-44
2023/04/30 02:53:45;;;;;;;;;;;;;;;;;;5084008;28;1809;-49
2023/04/30 02:56:12;;;;;;;;;;;;;;;;;;5070884;28;2005;-49
2023/04/30 02:58:39;;;;;;;;;;;;;;;;;;5071045;28;1895;-41
2023/04/30 03:01:07;;;;;;;;;;;;;;;;;;5052876;28;1953;-40
2023/04/30 03:03:34;;;;;;;;;;;;;;;;;;5052751;28;1913;-39
2023/04/30 03:06:01;;;;;;;;;;;;;;;;;;5052896;28;1882;-47
2023/04/30 03:08:28;;;;;;;;;;;;;;;;;;5052949;28;2001;-40
2023/04/30 03:10:56;;;;;;;;;;;;;;;;;;5070802;28;2132;-51
2023/04/30 03:13:26;;;;;;;;;;;;;;;;;;5070746;28;2315;-42
2023/04/30 03:15:57;;;;;;;;;;;;;;;;;;5073315;28;2038;-46
2023/04/30 03:18:24;;;;;;;;;;;;;;;;;;5074936;28;2157;-43
2023/04/30 03:20:52;;;;;;;;;;;;;;;;;;5056777;28;2048;-40
2023/04/30 03:23:20;;;;;;;;;;;;;;;;;;5074713;28;1986;-42
2023/04/30 03:25:47;;;;;;;;;;;;;;;;;;5079641;28;2168;-43
2023/04/30 03:28:14;;;;;;;;;;;;;;;;;;5094761;28;1782;-42
2023/04/30 03:30:42;;;;;;;;;;;;;;;;;;5094754;28;2081;-44
2023/04/30 03:33:09;;;;;;;;;;;;;;;;;;5094835;28;2109;-40
2023/04/30 03:35:36;;;;;;;;;;;;;;;;;;5094638;28;1979;-46
2023/04/30 03:38:03;;;;;;;;;;;;;;;;;;5094809;28;1920;-44
2023/04/30 03:40:30;;;;;;;;;;;;;;;;;;5076560;28;1959;-45
2023/04/30 03:42:57;;;;;;;;;;;;;;;;;;5094440;28;2154;-41
2023/04/30 03:45:24;;;;;;;;;;;;;;;;;;5076167;28;1954;-50
2023/04/30 03:47:52;;;;;;;;;;;;;;;;;;5094314;28;2137;-44
2023/04/30 03:50:19;;;;;;;;;;;;;;;;;;5094200;28;2126;-46
2023/04/30 03:52:47;;;;;;;;;;;;;;;;;;5076121;28;1921;-41
2023/04/30 03:55:15;;;;;;;;;;;;;;;;;;5072521;28;2120;-48
2023/04/30 03:57:44;;;;;;;;;;;;;;;;;;5056139;28;1848;-43
2023/04/30 04:00:12;;;;;;;;;;;;;;;;;;5074017;28;1753;-57
2023/04/30 04:02:42;;;;;;;;;;;;;;;;;;5089446;28;1965;-38
2023/04/30 04:05:10;;;;;;;;;;;;;;;;;;5089261;28;2061;-47
2023/04/30 04:07:38;;;;;;;;;;;;;;;;;;5055885;28;2006;-42
2023/04/30 04:10:05;;;;;;;;;;;;;;;;;;5055892;28;2049;-41
2023/04/30 04:12:32;;;;;;;;;;;;;;;;;;5073914;28;2135;-45
2023/04/30 04:15:00;;;;;;;;;;;;;;;;;;5089096;28;2105;-43
2023/04/30 04:17:28;;;;;;;;;;;;;;;;;;5055692;28;1787;-40
2023/04/30 04:19:55;;;;;;;;;;;;;;;;;;5073416;28;1858;-46
2023/04/30 04:22:24;;;;;;;;;;;;;;;;;;5055480;28;2199;-43
2023/04/30 04:24:52;;;;;;;;;;;;;;;;;;5055625;28;1982;-42
2023/04/30 04:27:21;;;;;;;;;;;;;;;;;;5055393;28;2035;-46
2023/04/30 04:29:49;;;;;;;;;;;;;;;;;;5073705;28;2222;-46
2023/04/30 04:32:16;;;;;;;;;;;;;;;;;;5055801;28;1873;-41
2023/04/30 04:34:44;;;;;;;;;;;;;;;;;;5073414;28;2096;-49
2023/04/30 04:37:11;;;;;;;;;;;;;;;;;;5073243;28;2154;-46
2023/04/30 04:39:41;;;;;;;;;;;;;;;;;;5073150;28;1918;-44
2023/04/30 04:42:08;;;;;;;;;;;;;;;;;;5055441;28;1818;-49
2023/04/30 04:44:36;;;;;;;;;;;;;;;;;;5055406;28;1883;-48
2023/04/30 04:47:04;;;;;;;;;;;;;;;;;;5073264;28;1456;-43
2023/04/30 04:49:32;;;;;;;;;;;;;;;;;;5088450;28;2138;-47
2023/04/30 04:52:00;;;;;;;;;;;;;;;;;;5072777;28;2154;-49
2023/04/30 04:54:28;;;;;;;;;;;;;;;;;;5064524;28;1995;-53
2023/04/30 04:56:55;;;;;;;;;;;;;;;;;;5077339;28;2104;-49
2023/04/30 04:59:23;;;;;;;;;;;;;;;;;;5074928;28;1847;-55
2023/04/30 05:01:50;;;;;;;;;;;;;;;;;;5093068;28;1898;-52
2023/04/30 05:04:18;;;;;;;;;;;;;;;;;;5074965;28;2087;-44
2023/04/30 05:06:46;;;;;;;;;;;;;;;;;;5074750;28;2052;-44
2023/04/30 05:09:13;;;;;;;;;;;;;;;;;;5092897;28;1950;-59
2023/04/30 05:11:40;;;;;;;;;;;;;;;;;;5074850;28;1795;-53
2023/04/30 05:14:07;;;;;;;;;;;;;;;;;;5092856;28;1968;-49
2023/04/30 05:16:34;;;;;;;;;;;;;;;;;;5092800;28;1919;-56
2023/04/30 05:19:02;;;;;;;;;;;;;;;;;;5092492;28;2055;-41
2023/04/30 05:21:30;;;;;;;;;;;;;;;;;;5092377;28;1819;-44
2023/04/30 05:23:58;;;;;;;;;;;;;;;;;;5092672;28;1956;-59
2023/04/30 05:26:25;;;;;;;;;;;;;;;;;;5092593;28;2122;-43
2023/04/30 05:28:52;;;;;;;;;;;;;;;;;;5092442;28;2182;-41
2023/04/30 05:31:19;;;;;;;;;;;;;;;;;;5092393;28;1979;-58
2023/04/30 05:33:47;;;;;;;;;;;;;;;;;;5092609;28;2180;-44
2023/04/30 05:36:14;;;;;;;;;;;;;;;;;;5092304;28;2306;-40
2023/04/30 05:38:41;;;;;;;;;;;;;;;;;;5091825;28;2145;-40
2023/04/30 05:41:10;;;;;;;;;;;;;;;;;;5092620;28;2049;-45
2023/04/30 05:43:38;;;;;;;;;;;;;;;;;;5092327;28;1983;-48
2023/04/30 05:46:05;;;;;;;;;;;;;;;;;;5092087;28;2116;-51
2023/04/30 05:48:32;;;;;;;;;;;;;;;;;;5092038;28;1919;-46
2023/04/30 05:54:17;;;;;;;;;;;;;;;;;;5191766;27;1323;-45
2023/04/30 05:56:44;;;;;;;;;;;;;;;;;;5192061;27;982;-45
2023/04/30 05:59:11;;;;;;;;;;;;;;;;;;5192284;27;946;-46
2023/04/30 06:01:38;;;;;;;;;;;;;;;;;;5192508;27;979;-49
2023/04/30 06:04:05;;;;;;;;;;;;;;;;;;5192033;27;910;-49
2023/04/30 06:06:33;;;;;;;;;;;;;;;;;;5191923;27;1118;-46
2023/04/30 06:09:00;;;;;;;;;;;;;;;;;;5192079;27;997;-48
2023/04/30 06:11:28;;;;;;;;;;;;;;;;;;5191751;27;1139;-39
2023/04/30 06:13:55;;;;;;;;;;;;;;;;;;5192228;27;1974;-40
2023/04/30 06:16:22;;;;;;;;;;;;;;;;;;5189295;27;1171;-39
2023/04/30 06:18:49;;;;;;;;;;;;;;;;;;5170494;27;1061;-43
2023/04/30 06:21:19;;;;;;;;;;;;;;;;;;5170759;27;1141;-39
2023/04/30 06:23:46;;;;;;;;;;;;;;;;;;5170380;27;1118;-39
2023/04/30 06:26:14;;;;;;;;;;;;;;;;;;5170661;27;1133;-39
2023/04/30 06:28:41;;;;;;;;;;;;;;;;;;5170762;27;994;-39
2023/04/30 06:31:08;;;;;;;;;;;;;;;;;;5170440;27;891;-39
2023/04/30 06:33:35;;;;;;;;;;;;;;;;;;5169746;27;1913;-64
2023/04/30 06:36:03;;;;;;;;;;;;;;;;;;5170330;27;1690;-38
2023/04/30 06:38:30;;;;;;;;;;;;;;;;;;5170411;27;1156;-38
2023/04/30 06:40:57;;;;;;;;;;;;;;;;;;5170366;27;1234;-52
2023/04/30 06:43:24;;;;;;;;;;;;;;;;;;5151377;27;1017;-42
2023/04/30 06:45:51;;;;;;;;;;;;;;;;;;5170180;27;999;-38
2023/04/30 06:48:19;;;;;;;;;;;;;;;;;;5169936;27;1352;-39
2023/04/30 06:50:46;;;;;;;;;;;;;;;;;;5170318;27;1278;-39
2023/04/30 06:53:14;;;;;;;;;;;;;;;;;;5169735;27;1915;-38
2023/04/30 06:55:41;;;;;;;;;;;;;;;;;;5170036;27;1296;-38
2023/04/30 06:58:08;;;;;;;;;;;;;;;;;;5169918;27;907;-37
2023/04/30 07:00:36;;;;;;;;;;;;;;;;;;5170147;27;1031;-37
2023/04/30 07:03:03;;;;;;;;;;;;;;;;;;5170125;27;1385;-36
2023/04/30 07:05:31;;;;;;;;;;;;;;;;;;5157151;27;1056;-37
2023/04/30 07:08:00;;;;;;;;;;;;;;;;;;5155842;27;1310;-38
2023/04/30 07:10:27;;;;;;;;;;;;;;;;;;5155852;27;1191;-37
2023/04/30 07:12:55;;;;;;;;;;;;;;;;;;5155569;27;1913;-46
2023/04/30 07:15:22;;;;;;;;;;;;;;;;;;5155650;27;1192;-47
2023/04/30 07:17:49;;;;;;;;;;;;;;;;;;5137287;27;1089;-51
2023/04/30 07:20:17;;;;;;;;;;;;;;;;;;5155765;27;1156;-40
2023/04/30 07:22:44;;;;;;;;;;;;;;;;;;5155727;27;1302;-58
2023/04/30 07:25:12;;;;;;;;;;;;;;;;;;5155515;27;1001;-37
2023/04/30 07:27:39;;;;;;;;;;;;;;;;;;5155255;27;1061;-36
2023/04/30 07:30:09;;;;;;;;;;;;;;;;;;5155318;27;887;-36
2023/04/30 07:32:36;;;;;;;;;;;;;;;;;;5154974;27;1923;-45
2023/04/30 07:35:05;;;;;;;;;;;;;;;;;;5155213;27;1016;-37
2023/04/30 07:37:32;;;;;;;;;;;;;;;;;;5155268;27;1019;-43
2023/04/30 07:40:02;;;;;;;;;;;;;;;;;;5155094;27;988;-36
2023/04/30 07:42:29;;;;;;;;;;;;;;;;;;5136738;27;1342;-37
2023/04/30 07:44:56;;;;;;;;;;;;;;;;;;5155243;27;1081;-37
2023/04/30 07:47:24;;;;;;;;;;;;;;;;;;5155357;27;1071;-37
2023/04/30 07:49:51;;;;;;;;;;;;;;;;;;5155482;27;1090;-38
2023/04/30 07:52:19;;;;;;;;;;;;;;;;;;5155734;27;1387;-37
2023/04/30 07:54:46;;;;;;;;;;;;;;;;;;5171664;27;1340;-38
2023/04/30 07:57:13;;;;;;;;;;;;;;;;;;5166503;27;1117;-38
2023/04/30 07:59:40;;;;;;;;;;;;;;;;;;5155088;27;1337;-58
2023/04/30 08:02:08;;;;;;;;;;;;;;;;;;5136231;27;1409;-37
2023/04/30 08:04:35;;;;;;;;;;;;;;;;;;5153996;27;1002;-37
2023/04/30 08:07:03;;;;;;;;;;;;;;;;;;5154722;27;1030;-37
2023/04/30 08:09:30;;;;;;;;;;;;;;;;;;5154341;27;923;-37
2023/04/30 08:11:57;;;;;;;;;;;;;;;;;;5154687;27;1022;-37
2023/04/30 08:14:25;;;;;;;;;;;;;;;;;;5154264;27;1910;-37
2023/04/30 08:16:52;;;;;;;;;;;;;;;;;;5153615;27;1052;-38
2023/04/30 08:19:19;;;;;;;;;;;;;;;;;;5154707;27;1115;-56
2023/04/30 08:21:46;;;;;;;;;;;;;;;;;;5154377;27;1115;-37
2023/04/30 08:24:13;;;;;;;;;;;;;;;;;;5154646;27;1008;-36
2023/04/30 08:26:41;;;;;;;;;;;;;;;;;;5154253;27;1105;-36
2023/04/30 08:29:08;;;;;;;;;;;;;;;;;;5154271;27;1099;-38
2023/04/30 08:31:36;;;;;;;;;;;;;;;;;;5154272;27;990;-38
2023/04/30 08:34:03;;;;;;;;;;;;;;;;;;5153976;27;1910;-41
2023/04/30 08:36:30;;;;;;;;;;;;;;;;;;5154077;27;1059;-36
2023/04/30 08:38:57;;;;;;;;;;;;;;;;;;5154067;27;964;-40
2023/04/30 08:41:25;;;;;;;;;;;;;;;;;;5154066;27;1167;-37
2023/04/30 08:43:53;;;;;;;;;;;;;;;;;;5154274;27;963;-37
2023/04/30 08:46:23;;;;;;;;;;;;;;;;;;5154000;27;1094;-36
2023/04/30 08:48:50;;;;;;;;;;;;;;;;;;5153960;27;1165;-38
2023/04/30 08:51:17;;;;;;;;;;;;;;;;;;5153696;27;1138;-37
2023/04/30 08:53:45;;;;;;;;;;;;;;;;;;5153362;27;1989;-39
2023/04/30 08:56:12;;;;;;;;;;;;;;;;;;5153700;27;1464;-44
2023/04/30 08:58:40;;;;;;;;;;;;;;;;;;5153842;27;1153;-57
2023/04/30 09:01:07;;;;;;;;;;;;;;;;;;5153458;27;931;-37
2023/04/30 09:03:35;;;;;;;;;;;;;;;;;;5153525;27;1042;-42
2023/04/30 09:06:02;;;;;;;;;;;;;;;;;;5153661;27;974;-37
2023/04/30 09:08:41;;;;;;;;;;;;;;;;;;5153600;27;1070;-37
2023/04/30 09:11:21;;;;;;;;;;;;;;;;;;5135143;27;1086;-36
2023/04/30 09:13:52;;;;;;;;;;;;;;;;;;5153154;27;1974;-38
2023/04/30 09:16:20;;;;;;;;;;;;;;;;;;5153445;27;898;-38
2023/04/30 09:18:47;;;;;;;;;;;;;;;;;;5153395;27;1150;-38
2023/04/30 09:21:15;;;;;;;;;;;;;;;;;;5153262;27;950;-44
2023/04/30 09:23:54;;;;;;;;;;;;;;;;;;5153441;27;1157;-38
2023/04/30 09:26:40;;;;;;;;;;;;;;;;;;5153487;27;969;-38
2023/04/30 09:29:09;;;;;;;;;;;;;;;;;;5152998;27;1081;-38
2023/04/30 09:31:36;;;;;;;;;;;;;;;;;;5153224;27;1022;-37
2023/04/30 09:34:05;;;;;;;;;;;;;;;;;;5152881;27;1913;-49
2023/04/30 09:36:32;;;;;;;;;;;;;;;;;;5153319;27;1134;-39
2023/04/30 09:39:16;;;;;;;;;;;;;;;;;;5152479;27;1064;-39
2023/04/30 09:41:45;;;;;;;;;;;;;;;;;;5153181;27;1179;-40
2023/04/30 09:44:27;;;;;;;;;;;;;;;;;;5152802;27;1162;-40
2023/04/30 09:46:56;;;;;;;;;;;;;;;;;;5153209;27;1161;-41
2023/04/30 09:49:23;;;;;;;;;;;;;;;;;;5152955;27;1269;-43
2023/04/30 09:51:59;;;;;;;;;;;;;;;;;;5153067;27;1001;-43
2023/04/30 09:54:31;;;;;;;;;;;;;;;;;;5166254;27;1901;-42
2023/04/30 09:57:00;;;;;;;;;;;;;;;;;;5173979;27;993;-42
2023/04/30 09:59:31;;;;;;;;;;;;;;;;;;5173916;27;999;-45
2023/04/30 10:02:00;;;;;;;;;;;;;;;;;;5173708;27;1155;-44
2023/04/30 10:04:32;;;;;;;;;;;;;;;;;;5173795;27;984;-45
2023/04/30 10:07:01;;;;;;;;;;;;;;;;;;5173672;27;1158;-45
2023/04/30 10:09:31;;;;;;;;;;;;;;;;;;5174007;27;1544;-49
2023/04/30 10:11:58;;;;;;;;;;;;;;;;;;5173740;27;905;-50
2023/04/30 10:14:28;;;;;;;;;;;;;;;;;;5173408;27;1914;-51
2023/04/30 10:17:08;;;;;;;;;;;;;;;;;;5173752;27;1066;-53
2023/04/30 10:19:40;;;;;;;;;;;;;;;;;;5173454;27;1058;-54
2023/04/30 10:22:08;;;;;;;;;;;;;;;;;;5173346;27;1445;-52
2023/04/30 10:24:35;;;;;;;;;;;;;;;;;;5173398;27;1255;-51
2023/04/30 10:27:03;;;;;;;;;;;;;;;;;;5173057;27;903;-53
2023/04/30 10:29:30;;;;;;;;;;;;;;;;;;5173706;27;1215;-50
2023/04/30 10:31:58;;;;;;;;;;;;;;;;;;5173371;27;1110;-49
2023/04/30 10:34:38;;;;;;;;;;;;;;;;;;5173241;27;1974;-47
2023/04/30 10:37:21;;;;;;;;;;;;;;;;;;5173161;27;1176;-48
2023/04/30 10:39:51;;;;;;;;;;;;;;;;;;5174995;27;1001;-47
2023/04/30 10:42:20;;;;;;;;;;;;;;;;;;5177146;27;1045;-47
2023/04/30 10:44:50;;;;;;;;;;;;;;;;;;5177233;27;1083;-44
2023/04/30 10:47:20;;;;;;;;;;;;;;;;;;5177087;27;1072;-52
2023/04/30 10:49:51;;;;;;;;;;;;;;;;;;5176852;27;950;-43
2023/04/30 10:52:28;;;;;;;;;;;;;;;;;;5176846;27;1353;-41
2023/04/30 10:54:56;;;;;;;;;;;;;;;;;;5159180;27;1917;-40
2023/04/30 10:57:28;;;;;;;;;;;;;;;;;;5156045;27;1166;-46
2023/04/30 10:59:56;;;;;;;;;;;;;;;;;;5156095;27;919;-39
2023/04/30 11:02:37;;;;;;;;;;;;;;;;;;5155904;27;945;-47
2023/04/30 11:05:08;;;;;;;;;;;;;;;;;;5155979;27;1167;-39
2023/04/30 11:07:35;;;;;;;;;;;;;;;;;;5155947;27;1158;-38
2023/04/30 11:10:02;;;;;;;;;;;;;;;;;;5155981;27;1006;-39
2023/04/30 11:12:29;;;;;;;;;;;;;;;;;;5155982;27;965;-41
2023/04/30 11:15:05;;;;;;;;;;;;;;;;;;5155391;27;1909;-39
2023/04/30 11:17:32;;;;;;;;;;;;;;;;;;5155768;27;1242;-39
2023/04/30 11:20:00;;;;;;;;;;;;;;;;;;5155656;27;1359;-38
2023/04/30 11:22:35;;;;;;;;;;;;;;;;;;5155537;27;994;-39
2023/04/30 11:25:04;;;;;;;;;;;;;;;;;;5137295;27;1102;-39
2023/04/30 11:27:32;;;;;;;;;;;;;;;;;;5155659;27;924;-39
2023/04/30 11:30:00;;;;;;;;;;;;;;;;;;5155599;27;1066;-39
2023/04/30 11:32:34;;;;;;;;;;;;;;;;;;5155345;27;1193;-39
2023/04/30 11:35:03;;;;;;;;;;;;;;;;;;5155358;27;1906;-39
2023/04/30 11:37:31;;;;;;;;;;;;;;;;;;5155533;27;1319;-50
2023/04/30 11:40:02;;;;;;;;;;;;;;;;;;5154962;27;987;-40
2023/04/30 11:42:30;;;;;;;;;;;;;;;;;;5155282;27;1322;-64
2023/04/30 11:45:07;;;;;;;;;;;;;;;;;;5155228;27;1031;-59
2023/04/30 11:47:39;;;;;;;;;;;;;;;;;;5155012;27;992;-60
2023/04/30 11:50:10;;;;;;;;;;;;;;;;;;5154842;27;1020;-39
2023/04/30 11:52:38;;;;;;;;;;;;;;;;;;5154453;27;1347;-39
2023/04/30 11:55:25;;;;;;;;;;;;;;;;;;5173882;27;1982;-40
2023/04/30 11:57:54;;;;;;;;;;;;;;;;;;5175743;27;938;-40
2023/04/30 12:00:25;;;;;;;;;;;;;;;;;;5175782;27;1063;-53
2023/04/30 12:02:53;;;;;;;;;;;;;;;;;;5175535;27;1087;-39
2023/04/30 12:05:21;;;;;;;;;;;;;;;;;;5175783;27;1009;-61
2023/04/30 12:08:08;;;;;;;;;;;;;;;;;;5175397;27;1210;-41
2023/04/30 12:10:35;;;;;;;;;;;;;;;;;;5175618;27;1125;-43
2023/04/30 12:13:02;;;;;;;;;;;;;;;;;;5175739;27;1181;-41
2023/04/30 12:15:29;;;;;;;;;;;;;;;;;;5175077;27;1909;-41
2023/04/30 12:17:58;;;;;;;;;;;;;;;;;;5175435;27;1009;-40
2023/04/30 12:20:26;;;;;;;;;;;;;;;;;;5175581;27;1172;-41
2023/04/30 12:22:53;;;;;;;;;;;;;;;;;;5175056;27;1041;-50
2023/04/30 12:25:21;;;;;;;;;;;;;;;;;;5175355;27;1135;-40
2023/04/30 12:27:50;;;;;;;;;;;;;;;;;;5174899;27;1254;-61
2023/04/30 12:30:24;;;;;;;;;;;;;;;;;;5174847;27;1301;-61
2023/04/30 12:32:52;;;;;;;;;;;;;;;;;;5174947;27;957;-49
2023/04/30 12:35:20;;;;;;;;;;;;;;;;;;5174668;27;1930;-40
2023/04/30 12:37:50;;;;;;;;;;;;;;;;;;5174904;27;1156;-46
2023/04/30 12:40:25;;;;;;;;;;;;;;;;;;5174692;27;1169;-41
2023/04/30 12:43:03;;;;;;;;;;;;;;;;;;5174886;27;1356;-41
2023/04/30 12:45:50;;;;;;;;;;;;;;;;;;5174723;27;1151;-64
2023/04/30 12:48:20;;;;;;;;;;;;;;;;;;5174668;27;1167;-40
2023/04/30 12:50:50;;;;;;;;;;;;;;;;;;5174645;27;1108;-43
2023/04/30 12:53:17;;;;;;;;;;;;;;;;;;5171109;27;1290;-53
2023/04/30 12:56:04;;;;;;;;;;;;;;;;;;5153573;27;2347;-43
2023/04/30 12:58:31;;;;;;;;;;;;;;;;;;5153712;27;1074;-40
2023/04/30 13:00:59;;;;;;;;;;;;;;;;;;5153431;27;1026;-52
2023/04/30 13:03:26;;;;;;;;;;;;;;;;;;5153025;27;1057;-51
2023/04/30 13:05:53;;;;;;;;;;;;;;;;;;5153296;27;1211;-40
2023/04/30 13:08:20;;;;;;;;;;;;;;;;;;5153508;27;1069;-55
2023/04/30 13:10:48;;;;;;;;;;;;;;;;;;5153287;27;1018;-40
2023/04/30 13:13:15;;;;;;;;;;;;;;;;;;5153392;27;881;-40
2023/04/30 13:15:42;;;;;;;;;;;;;;;;;;5153510;27;1898;-57
2023/04/30 13:18:10;;;;;;;;;;;;;;;;;;5153541;27;1145;-43
2023/04/30 13:20:38;;;;;;;;;;;;;;;;;;5153380;27;1250;-40
2023/04/30 13:23:05;;;;;;;;;;;;;;;;;;5153214;27;1002;-47
2023/04/30 13:25:33;;;;;;;;;;;;;;;;;;5153316;27;927;-65
2023/04/30 13:28:01;;;;;;;;;;;;;;;;;;5152999;27;1173;-46
2023/04/30 13:30:28;;;;;;;;;;;;;;;;;;5152955;27;1098;-40
2023/04/30 13:32:56;;;;;;;;;;;;;;;;;;5153097;27;1529;-40
2023/04/30 13:35:23;;;;;;;;;;;;;;;;;;5152721;27;1902;-40
2023/04/30 13:37:52;;;;;;;;;;;;;;;;;;5153239;27;989;-39
2023/04/30 13:40:19;;;;;;;;;;;;;;;;;;5152924;27;1329;-41
2023/04/30 13:42:47;;;;;;;;;;;;;;;;;;5152953;27;1235;-39
2023/04/30 13:45:15;;;;;;;;;;;;;;;;;;5152906;27;1089;-40
2023/04/30 13:47:42;;;;;;;;;;;;;;;;;;5153115;27;1054;-40
2023/04/30 13:50:09;;;;;;;;;;;;;;;;;;5153104;27;1015;-62
2023/04/30 13:52:37;;;;;;;;;;;;;;;;;;5152638;27;1660;-41
2023/04/30 13:55:04;;;;;;;;;;;;;;;;;;5171085;27;1905;-39
2023/04/30 13:57:32;;;;;;;;;;;;;;;;;;5173592;27;913;-40
2023/04/30 13:59:59;;;;;;;;;;;;;;;;;;5173753;27;990;-39
2023/04/30 14:02:29;;;;;;;;;;;;;;;;;;5173667;27;1058;-39
2023/04/30 14:04:58;;;;;;;;;;;;;;;;;;5173430;27;1084;-55
2023/04/30 14:07:32;;;;;;;;;;;;;;;;;;5173919;27;1370;-39
2023/04/30 14:09:59;;;;;;;;;;;;;;;;;;5173449;27;1250;-64
2023/04/30 14:12:29;;;;;;;;;;;;;;;;;;5173410;27;1152;-50
2023/04/30 14:14:56;;;;;;;;;;;;;;;;;;5175104;27;1917;-41
2023/04/30 14:17:25;;;;;;;;;;;;;;;;;;5177610;27;1143;-39
2023/04/30 14:19:53;;;;;;;;;;;;;;;;;;5177477;27;1672;-40
2023/04/30 14:22:23;;;;;;;;;;;;;;;;;;5177331;27;1098;-55
2023/04/30 14:24:53;;;;;;;;;;;;;;;;;;5177726;27;944;-40
2023/04/30 14:27:24;;;;;;;;;;;;;;;;;;5177432;27;1228;-40
2023/04/30 14:29:51;;;;;;;;;;;;;;;;;;5177690;27;950;-39
2023/04/30 14:32:19;;;;;;;;;;;;;;;;;;5177313;27;1013;-40
2023/04/30 14:34:46;;;;;;;;;;;;;;;;;;5177237;27;1930;-40
2023/04/30 14:37:15;;;;;;;;;;;;;;;;;;5177631;27;1376;-39
2023/04/30 14:39:42;;;;;;;;;;;;;;;;;;5177650;27;1190;-39
2023/04/30 14:42:10;;;;;;;;;;;;;;;;;;5177100;27;984;-59
2023/04/30 14:44:37;;;;;;;;;;;;;;;;;;5177119;27;1172;-40
2023/04/30 14:47:04;;;;;;;;;;;;;;;;;;5177056;27;1356;-40
2023/04/30 14:49:31;;;;;;;;;;;;;;;;;;5176671;27;984;-40
2023/04/30 14:51:59;;;;;;;;;;;;;;;;;;5176994;27;1534;-41
2023/04/30 14:54:26;;;;;;;;;;;;;;;;;;5144732;27;2239;-40
2023/04/30 14:56:53;;;;;;;;;;;;;;;;;;5155753;27;1072;-44
2023/04/30 14:59:20;;;;;;;;;;;;;;;;;;5156192;27;1122;-43
2023/04/30 15:01:47;;;;;;;;;;;;;;;;;;5156256;27;1154;-43
2023/04/30 15:04:14;;;;;;;;;;;;;;;;;;5156095;27;1113;-40
2023/04/30 15:06:42;;;;;;;;;;;;;;;;;;5155923;27;1066;-40
2023/04/30 15:09:11;;;;;;;;;;;;;;;;;;5155857;27;1100;-47
2023/04/30 15:11:38;;;;;;;;;;;;;;;;;;5155803;27;1237;-40
2023/04/30 15:14:05;;;;;;;;;;;;;;;;;;5155540;27;1080;-41
2023/04/30 15:16:32;;;;;;;;;;;;;;;;;;5155391;27;1901;-39
2023/04/30 15:18:59;;;;;;;;;;;;;;;;;;5155612;27;1064;-40
2023/04/30 15:21:27;;;;;;;;;;;;;;;;;;5155695;27;990;-39
2023/04/30 15:23:54;;;;;;;;;;;;;;;;;;5155646;27;1215;-40
2023/04/30 15:26:22;;;;;;;;;;;;;;;;;;5155021;27;1063;-39
2023/04/30 15:28:49;;;;;;;;;;;;;;;;;;5155821;27;1185;-40
2023/04/30 15:31:16;;;;;;;;;;;;;;;;;;5155411;27;1018;-40
2023/04/30 15:33:43;;;;;;;;;;;;;;;;;;5155397;27;1073;-40
2023/04/30 15:36:10;;;;;;;;;;;;;;;;;;5155103;27;1970;-41
2023/04/30 15:38:38;;;;;;;;;;;;;;;;;;5155390;27;1066;-40
2023/04/30 15:41:05;;;;;;;;;;;;;;;;;;5155392;27;1073;-40
2023/04/30 15:43:32;;;;;;;;;;;;;;;;;;5155001;27;1175;-40
2023/04/30 15:46:03;;;;;;;;;;;;;;;;;;5155402;27;1225;-40
2023/04/30 15:48:30;;;;;;;;;;;;;;;;;;5155063;27;1158;-40
2023/04/30 15:50:57;;;;;;;;;;;;;;;;;;5155193;27;1360;-40
2023/04/30 15:53:24;;;;;;;;;;;;;;;;;;5159234;27;1337;-39
2023/04/30 15:55:52;;;;;;;;;;;;;;;;;;5175505;27;1913;-54
2023/04/30 15:58:19;;;;;;;;;;;;;;;;;;5175888;27;1036;-38
2023/04/30 16:00:46;;;;;;;;;;;;;;;;;;5175709;27;1130;-48
2023/04/30 16:03:13;;;;;;;;;;;;;;;;;;5175999;27;1135;-40
2023/04/30 16:05:41;;;;;;;;;;;;;;;;;;5175659;27;1317;-55
2023/04/30 16:08:11;;;;;;;;;;;;;;;;;;5175359;27;1283;-39
2023/04/30 16:10:38;;;;;;;;;;;;;;;;;;5175521;27;1107;-39
2023/04/30 16:13:08;;;;;;;;;;;;;;;;;;5175099;27;1005;-40
2023/04/30 16:15:35;;;;;;;;;;;;;;;;;;5175226;27;1934;-40
2023/04/30 16:18:02;;;;;;;;;;;;;;;;;;5175427;27;1194;-44
2023/04/30 16:20:30;;;;;;;;;;;;;;;;;;5175471;27;1068;-39
2023/04/30 16:22:58;;;;;;;;;;;;;;;;;;5175289;27;996;-40
2023/04/30 16:25:25;;;;;;;;;;;;;;;;;;5175089;27;1379;-38
2023/04/30 16:27:52;;;;;;;;;;;;;;;;;;5175474;27;1018;-39
2023/04/30 16:30:19;;;;;;;;;;;;;;;;;;5175462;27;1071;-38
2023/04/30 16:32:46;;;;;;;;;;;;;;;;;;5175348;27;918;-39
2023/04/30 16:35:14;;;;;;;;;;;;;;;;;;5175476;27;1984;-39
2023/04/30 16:37:41;;;;;;;;;;;;;;;;;;5174382;27;1100;-39
2023/04/30 16:40:09;;;;;;;;;;;;;;;;;;5175146;27;1009;-39
2023/04/30 16:42:36;;;;;;;;;;;;;;;;;;5175076;27;992;-38
2023/04/30 16:45:04;;;;;;;;;;;;;;;;;;5174734;27;1157;-40
2023/04/30 16:47:31;;;;;;;;;;;;;;;;;;5164077;27;1022;-40
2023/04/30 16:49:58;;;;;;;;;;;;;;;;;;5153670;27;928;-43
2023/04/30 16:52:26;;;;;;;;;;;;;;;;;;5153491;27;1225;-40
2023/04/30 16:54:53;;;;;;;;;;;;;;;;;;5170983;27;1909;-41
2023/04/30 16:57:21;;;;;;;;;;;;;;;;;;5174800;27;1049;-53
2023/04/30 16:59:49;;;;;;;;;;;;;;;;;;5174588;27;1351;-39
2023/04/30 17:02:16;;;;;;;;;;;;;;;;;;5174443;27;1099;-40
2023/04/30 17:04:43;;;;;;;;;;;;;;;;;;5174296;27;1021;-39
2023/04/30 17:07:11;;;;;;;;;;;;;;;;;;5174228;27;1051;-48
2023/04/30 17:09:38;;;;;;;;;;;;;;;;;;5174407;27;931;-39
2023/04/30 17:12:06;;;;;;;;;;;;;;;;;;5174285;27;1098;-40
2023/04/30 17:14:34;;;;;;;;;;;;;;;;;;5174396;27;1446;-40
2023/04/30 17:17:01;;;;;;;;;;;;;;;;;;5173956;27;1976;-40
2023/04/30 17:19:28;;;;;;;;;;;;;;;;;;5174208;27;1129;-40